createdAt,value
2019-03-16T00:01:57.494Z,18.82
2019-03-16T00:04:24.504Z,26.20
2019-03-16T00:06:52.922Z,24.23
2019-03-16T00:09:21.353Z,30.05
2019-03-16T00:11:49.878Z,24.23
2019-03-16T00:14:18.367Z,30.65
2019-03-16T00:16:46.787Z,25.57
2019-03-16T00:19:15.211Z,19.48
2019-03-16T00:21:43.598Z,20.95
2019-03-16T00:24:12.001Z,21.50
2019-03-16T00:26:40.459Z,23.27
2019-03-16T00:29:09.005Z,31.60
2019-03-16T00:31:37.377Z,27.82
2019-03-16T00:34:05.853Z,24.02
2019-03-16T00:36:34.272Z,29.02
2019-03-16T00:39:02.759Z,33.58
2019-03-16T00:41:31.154Z,30.17
2019-03-16T00:43:59.546Z,37.98
2019-03-16T00:46:27.966Z,36.65
2019-03-16T00:48:56.378Z,25.82
2019-03-16T00:51:24.806Z,30.23
2019-03-16T00:53:53.183Z,26.45
2019-03-16T00:56:21.649Z,26.62
2019-03-16T00:58:50.026Z,25.95
2019-03-16T01:01:18.476Z,34.98
2019-03-16T01:03:46.863Z,21.97
2019-03-16T01:06:15.262Z,19.23
2019-03-16T01:08:43.678Z,24.00
2019-03-16T01:11:12.127Z,23.02
2019-03-16T01:13:40.535Z,23.60
2019-03-16T01:16:08.979Z,27.35
2019-03-16T01:18:37.388Z,29.10
2019-03-16T01:21:05.777Z,22.27
2019-03-16T01:23:34.301Z,16.32
2019-03-16T01:26:02.710Z,24.00
2019-03-16T01:28:31.094Z,18.42
2019-03-16T01:30:59.571Z,24.23
2019-03-16T01:33:27.950Z,17.73
2019-03-16T01:35:57.491Z,21.90
2019-03-16T01:38:25.966Z,15.00
2019-03-16T01:40:54.345Z,23.42
2019-03-16T01:43:22.894Z,15.10
2019-03-16T01:45:51.274Z,18.62
2019-03-16T01:48:19.795Z,22.85
2019-03-16T01:50:48.215Z,21.15
2019-03-16T01:53:16.593Z,22.90
2019-03-16T01:55:45.088Z,23.85
2019-03-16T01:58:13.528Z,25.92
2019-03-16T02:00:41.933Z,19.67
2019-03-16T02:03:10.421Z,16.15
2019-03-16T02:05:38.819Z,20.95
2019-03-16T02:08:29.423Z,24.25
2019-03-16T02:10:57.812Z,23.22
2019-03-16T02:13:26.264Z,14.98
2019-03-16T02:15:54.706Z,27.55
2019-03-16T02:18:23.142Z,23.10
2019-03-16T02:20:52.177Z,24.35
2019-03-16T02:23:20.558Z,16.40
2019-03-16T02:25:49.061Z,20.68
2019-03-16T02:28:17.440Z,36.38
2019-03-16T02:30:45.920Z,23.50
2019-03-16T02:33:14.343Z,26.07
2019-03-16T02:35:42.866Z,21.52
2019-03-16T02:38:11.239Z,22.90
2019-03-16T02:40:39.754Z,22.62
2019-03-16T02:43:08.150Z,16.80
2019-03-16T02:45:37.606Z,33.30
2019-03-16T02:48:05.997Z,21.02
2019-03-16T02:50:34.435Z,22.50
2019-03-16T02:53:02.835Z,25.37
2019-03-16T02:55:31.244Z,19.15
2019-03-16T02:57:59.698Z,29.42
2019-03-16T03:00:28.085Z,22.13
2019-03-16T03:02:56.510Z,26.45
2019-03-16T03:05:24.898Z,26.37
2019-03-16T03:07:53.287Z,24.50
2019-03-16T03:10:21.727Z,22.87
2019-03-16T03:12:50.155Z,19.50
2019-03-16T03:15:18.587Z,27.15
2019-03-16T03:17:47.014Z,25.85
2019-03-16T03:20:15.407Z,27.07
2019-03-16T03:22:43.812Z,31.05
2019-03-16T03:25:12.345Z,27.35
2019-03-16T03:27:40.771Z,28.30
2019-03-16T03:30:13.799Z,22.62
2019-03-16T03:32:42.648Z,27.35
2019-03-16T03:35:11.212Z,19.57
2019-03-16T03:37:39.574Z,30.35
2019-03-16T03:40:09.871Z,29.90
2019-03-16T03:42:38.247Z,17.87
2019-03-16T03:45:12.148Z,26.33
2019-03-16T03:47:40.506Z,23.62
2019-03-16T03:50:13.874Z,16.32
2019-03-16T03:52:42.345Z,15.55
2019-03-16T03:55:11.971Z,18.82
2019-03-16T03:57:41.413Z,29.18
2019-03-16T04:00:12.428Z,20.12
2019-03-16T04:02:40.858Z,25.02
2019-03-16T04:05:09.263Z,22.15
2019-03-16T04:07:37.825Z,31.17
2019-03-16T04:10:08.378Z,29.98
2019-03-16T04:12:36.811Z,22.15
2019-03-16T04:15:08.510Z,23.62
2019-03-16T04:17:36.961Z,21.25
2019-03-16T04:20:08.607Z,27.10
2019-03-16T04:22:38.153Z,21.05
2019-03-16T04:25:06.535Z,24.18
2019-03-16T04:27:34.954Z,22.45
2019-03-16T04:30:04.009Z,19.55
2019-03-16T04:32:32.404Z,21.95
2019-03-16T04:35:00.814Z,25.30
2019-03-16T04:37:29.399Z,25.62
2019-03-16T04:39:57.755Z,17.32
2019-03-16T04:42:26.191Z,24.27
2019-03-16T04:44:54.624Z,22.98
2019-03-16T04:47:23.147Z,11.60
2019-03-16T04:49:51.609Z,18.23
2019-03-16T04:52:20.022Z,22.62
2019-03-16T04:54:48.486Z,19.92
2019-03-16T04:57:16.856Z,24.23
2019-03-16T04:59:53.718Z,27.30
2019-03-16T05:02:22.077Z,23.55
2019-03-16T05:04:50.492Z,22.45
2019-03-16T05:07:19.931Z,25.12
2019-03-16T05:09:48.342Z,20.35
2019-03-16T05:12:16.721Z,20.75
2019-03-16T05:14:45.225Z,17.90
2019-03-16T05:17:13.589Z,16.95
2019-03-16T05:19:41.970Z,14.83
2019-03-16T05:22:10.525Z,17.48
2019-03-16T05:24:38.944Z,21.23
2019-03-16T05:27:07.502Z,22.32
2019-03-16T05:29:35.939Z,21.50
2019-03-16T05:32:04.326Z,13.75
2019-03-16T05:34:32.738Z,22.67
2019-03-16T05:37:01.172Z,18.90
2019-03-16T05:39:29.576Z,21.05
2019-03-16T05:41:57.962Z,22.25
2019-03-16T05:44:26.489Z,12.37
2019-03-16T05:46:54.924Z,23.42
2019-03-16T05:49:23.394Z,14.83
2019-03-16T05:51:51.782Z,18.65
2019-03-16T05:54:20.195Z,12.00
2019-03-16T05:56:48.739Z,12.88
2019-03-16T05:59:18.786Z,8.00
2019-03-16T06:01:47.189Z,7.45
2019-03-16T06:04:15.599Z,10.25
2019-03-16T06:06:44.010Z,8.33
2019-03-16T06:09:12.458Z,12.68
2019-03-16T06:11:40.857Z,9.70
2019-03-16T06:14:09.404Z,10.68
2019-03-16T06:16:37.806Z,11.57
2019-03-16T06:19:06.198Z,9.50
2019-03-16T06:21:34.595Z,7.83
2019-03-16T06:24:03.003Z,14.18
2019-03-16T06:26:31.461Z,6.33
2019-03-16T06:28:59.901Z,12.80
2019-03-16T06:31:28.398Z,12.45
2019-03-16T06:33:56.782Z,14.28
2019-03-16T06:36:25.246Z,8.98
2019-03-16T06:38:53.666Z,8.55
2019-03-16T06:41:22.161Z,13.05
2019-03-16T06:43:50.577Z,12.85
2019-03-16T06:46:18.953Z,9.98
2019-03-16T06:48:47.401Z,12.05
2019-03-16T06:51:15.876Z,11.63
2019-03-16T06:53:44.280Z,16.42
2019-03-16T06:56:13.638Z,13.05
2019-03-16T06:58:42.076Z,11.28
2019-03-16T07:01:10.483Z,9.13
2019-03-16T07:03:38.870Z,10.32
2019-03-16T07:06:07.271Z,9.95
2019-03-16T07:08:35.695Z,9.70
2019-03-16T07:11:04.069Z,10.32
2019-03-16T07:13:32.638Z,11.38
2019-03-16T07:16:01.018Z,12.95
2019-03-16T07:18:29.583Z,6.33
2019-03-16T07:20:57.999Z,12.82
2019-03-16T07:23:26.561Z,5.37
2019-03-16T07:25:55.001Z,14.38
2019-03-16T07:28:23.415Z,5.30
2019-03-16T07:30:52.930Z,9.13
2019-03-16T07:33:21.323Z,9.55
2019-03-16T07:35:49.726Z,9.70
2019-03-16T07:38:18.194Z,12.60
2019-03-16T07:40:46.603Z,9.23
2019-03-16T07:43:18.041Z,9.43
2019-03-16T07:45:47.664Z,9.20
2019-03-16T07:48:16.085Z,10.63
2019-03-16T07:50:44.490Z,11.30
2019-03-16T07:53:12.885Z,9.90
2019-03-16T07:55:42.406Z,6.97
2019-03-16T07:58:10.966Z,8.63
2019-03-16T08:00:39.457Z,11.18
2019-03-16T08:03:07.853Z,5.62
2019-03-16T08:05:37.348Z,7.55
2019-03-16T08:08:05.743Z,9.50
2019-03-16T08:10:34.168Z,8.48
2019-03-16T08:13:02.710Z,8.83
2019-03-16T08:15:31.231Z,11.25
2019-03-16T08:17:59.746Z,9.68
2019-03-16T08:20:31.268Z,14.60
2019-03-16T08:22:58.432Z,13.85
2019-03-16T08:25:26.824Z,11.38
2019-03-16T08:27:55.259Z,11.57
2019-03-16T08:30:24.006Z,7.75
2019-03-16T08:32:52.453Z,10.72
2019-03-16T08:35:23.859Z,9.20
2019-03-16T08:37:52.319Z,12.98
2019-03-16T08:40:20.753Z,8.30
2019-03-16T08:42:51.411Z,9.30
2019-03-16T08:45:19.387Z,10.13
2019-03-16T08:47:47.787Z,11.38
2019-03-16T08:50:16.261Z,10.82
2019-03-16T08:52:44.958Z,9.98
2019-03-16T08:55:13.545Z,8.80
2019-03-16T08:57:42.209Z,13.25
2019-03-16T09:00:12.137Z,9.60
2019-03-16T09:02:41.576Z,10.13
2019-03-16T09:05:09.981Z,15.28
2019-03-16T09:07:38.385Z,15.68
2019-03-16T09:10:12.073Z,12.95
2019-03-16T09:12:40.852Z,17.12
2019-03-16T09:15:16.116Z,16.15
2019-03-16T09:17:44.770Z,11.03
2019-03-16T09:20:13.148Z,11.22
2019-03-16T09:22:41.611Z,11.65
2019-03-16T09:25:10.798Z,7.80
2019-03-16T09:27:39.326Z,14.80
2019-03-16T09:30:16.246Z,11.22
2019-03-16T09:32:44.884Z,6.90
2019-03-16T09:35:13.381Z,14.75
2019-03-16T09:37:41.871Z,8.00
2019-03-16T09:40:10.787Z,9.98
2019-03-16T09:42:39.138Z,15.25
2019-03-16T09:45:10.148Z,8.55
2019-03-16T09:47:38.649Z,13.85
2019-03-16T09:50:09.036Z,10.98
2019-03-16T09:52:37.498Z,12.43
2019-03-16T09:55:10.679Z,12.63
2019-03-16T09:57:39.232Z,12.15
2019-03-16T10:00:18.263Z,12.35
2019-03-16T10:02:46.691Z,20.35
2019-03-16T10:05:15.077Z,7.03
2019-03-16T10:07:43.535Z,14.60
2019-03-16T10:10:17.148Z,9.68
2019-03-16T10:12:45.518Z,15.75
2019-03-16T10:15:14.652Z,16.00
2019-03-16T10:17:43.066Z,9.68
2019-03-16T10:20:13.888Z,11.63
2019-03-16T10:22:42.362Z,13.13
2019-03-16T10:25:10.952Z,11.20
2019-03-16T10:27:39.469Z,10.40
2019-03-16T10:30:12.820Z,9.20
2019-03-16T10:32:41.309Z,10.78
2019-03-16T10:35:09.704Z,16.73
2019-03-16T10:37:38.087Z,11.25
2019-03-16T10:40:09.377Z,12.43
2019-03-16T10:42:37.789Z,15.80
2019-03-16T10:45:08.142Z,15.88
2019-03-16T10:47:36.825Z,14.98
2019-03-16T10:50:08.511Z,15.30
2019-03-16T10:52:37.332Z,11.18
2019-03-16T10:55:06.922Z,12.18
2019-03-16T10:57:35.439Z,11.80
2019-03-16T11:00:11.890Z,11.50
2019-03-16T11:02:43.393Z,11.78
2019-03-16T11:05:11.918Z,10.43
2019-03-16T11:07:40.302Z,14.63
2019-03-16T11:10:12.908Z,14.43
2019-03-16T11:12:41.453Z,14.05
2019-03-16T11:15:15.832Z,16.50
2019-03-16T11:17:44.425Z,13.07
2019-03-16T11:20:17.341Z,14.80
2019-03-16T11:22:45.718Z,16.55
2019-03-16T11:25:14.242Z,21.70
2019-03-16T11:27:42.683Z,20.97
2019-03-16T11:30:18.799Z,22.82
2019-03-16T11:32:47.257Z,16.02
2019-03-16T11:35:15.637Z,17.50
2019-03-16T11:37:44.065Z,17.80
2019-03-16T11:40:15.249Z,20.50
2019-03-16T11:42:43.653Z,18.52
2019-03-16T11:45:13.202Z,15.78
2019-03-16T11:47:41.598Z,16.45
2019-03-16T11:50:12.055Z,15.25
2019-03-16T11:52:40.597Z,15.63
2019-03-16T11:55:11.713Z,16.52
2019-03-16T11:57:40.097Z,14.83
2019-03-16T12:00:11.761Z,24.07
2019-03-16T12:02:40.155Z,18.65
2019-03-16T12:05:10.350Z,22.27
2019-03-16T12:07:38.794Z,19.00
2019-03-16T12:10:09.948Z,20.92
2019-03-16T12:12:38.337Z,24.65
2019-03-16T12:15:11.726Z,23.87
2019-03-16T12:17:40.107Z,18.35
2019-03-16T12:20:17.708Z,26.73
2019-03-16T12:22:44.747Z,21.23
2019-03-16T12:25:13.312Z,21.17
2019-03-16T12:27:41.702Z,26.48
2019-03-16T12:30:14.782Z,17.32
2019-03-16T12:32:45.540Z,18.80
2019-03-16T12:35:13.945Z,25.48
2019-03-16T12:37:43.351Z,22.93
2019-03-16T12:40:14.084Z,24.75
2019-03-16T12:42:42.520Z,19.30
2019-03-16T12:45:15.975Z,22.87
2019-03-16T12:47:44.357Z,17.23
2019-03-16T12:50:16.733Z,15.20
2019-03-16T12:52:45.198Z,17.35
2019-03-16T12:55:13.681Z,19.25
2019-03-16T12:57:42.130Z,21.48
2019-03-16T13:00:17.540Z,17.20
2019-03-16T13:02:45.987Z,18.73
2019-03-16T13:05:14.379Z,16.45
2019-03-16T13:07:42.889Z,15.50
2019-03-16T13:10:15.649Z,14.95
2019-03-16T13:12:44.035Z,15.15
2019-03-16T13:15:12.619Z,20.92
2019-03-16T13:17:41.245Z,17.10
2019-03-16T13:20:15.722Z,22.35
2019-03-16T13:22:44.112Z,15.60
2019-03-16T13:25:12.536Z,15.15
2019-03-16T13:27:40.977Z,20.50
2019-03-16T13:30:21.854Z,15.23
2019-03-16T13:32:50.349Z,18.50
2019-03-16T13:35:19.664Z,15.45
2019-03-16T13:37:48.061Z,14.53
2019-03-16T13:40:18.170Z,13.50
2019-03-16T13:42:47.632Z,19.45
2019-03-16T13:45:16.083Z,17.00
2019-03-16T13:47:44.581Z,12.93
2019-03-16T13:50:18.140Z,13.60
2019-03-16T13:52:46.860Z,17.87
2019-03-16T13:55:15.339Z,11.57
2019-03-16T13:57:43.754Z,23.42
2019-03-16T14:00:20.830Z,15.55
2019-03-16T14:02:49.356Z,13.55
2019-03-16T14:05:17.777Z,11.10
2019-03-16T14:07:46.220Z,17.82
2019-03-16T14:10:20.530Z,13.58
2019-03-16T14:12:48.973Z,19.82
2019-03-16T14:15:17.370Z,16.02
2019-03-16T14:17:45.788Z,14.35
2019-03-16T14:20:16.729Z,15.90
2019-03-16T14:22:45.191Z,13.28
2019-03-16T14:25:13.604Z,9.65
2019-03-16T14:27:42.051Z,10.13
2019-03-16T14:30:29.508Z,8.48
2019-03-16T14:32:48.657Z,12.70
2019-03-16T14:35:17.218Z,12.50
2019-03-16T14:37:45.613Z,10.08
2019-03-16T14:40:15.064Z,11.57
2019-03-16T14:42:43.561Z,7.28
2019-03-16T14:45:14.115Z,9.68
2019-03-16T14:47:42.550Z,11.97
2019-03-16T14:50:24.732Z,13.00
2019-03-16T14:52:53.238Z,11.22
2019-03-16T14:55:22.737Z,12.03
2019-03-16T14:57:51.659Z,7.42
2019-03-16T15:00:20.337Z,11.80
2019-03-16T15:02:48.845Z,16.10
2019-03-16T15:05:17.230Z,12.93
2019-03-16T15:07:45.801Z,13.05
2019-03-16T15:10:16.476Z,15.95
2019-03-16T15:12:44.904Z,11.93
2019-03-16T15:15:15.994Z,8.83
2019-03-16T15:17:44.402Z,8.95
2019-03-16T15:20:13.074Z,11.73
2019-03-16T15:22:41.566Z,9.83
2019-03-16T15:25:11.504Z,6.42
2019-03-16T15:27:40.191Z,8.08
2019-03-16T15:30:13.845Z,9.83
2019-03-16T15:32:42.266Z,11.85
2019-03-16T15:35:11.798Z,11.65
2019-03-16T15:37:40.236Z,7.45
2019-03-16T15:40:10.934Z,7.58
2019-03-16T15:42:39.390Z,11.40
2019-03-16T15:45:13.659Z,10.30
2019-03-16T15:47:42.058Z,8.58
2019-03-16T15:50:10.538Z,10.82
2019-03-16T15:52:38.946Z,14.25
2019-03-16T15:55:07.781Z,7.85
2019-03-16T15:57:36.201Z,8.20
2019-03-16T16:00:10.949Z,10.32
2019-03-16T16:02:39.362Z,8.63
2019-03-16T16:05:08.879Z,7.83
2019-03-16T16:07:38.296Z,8.43
2019-03-16T16:10:12.550Z,9.80
2019-03-16T16:12:40.968Z,12.20
2019-03-16T16:15:10.494Z,7.72
2019-03-16T16:17:39.466Z,8.10
2019-03-16T16:20:23.254Z,7.97
2019-03-16T16:22:51.672Z,8.50
2019-03-16T16:25:20.118Z,5.92
2019-03-16T16:27:48.535Z,9.70
2019-03-16T16:30:19.150Z,8.15
2019-03-16T16:32:47.625Z,6.25
2019-03-16T16:35:16.351Z,8.15
2019-03-16T16:37:44.776Z,10.13
2019-03-16T16:40:17.437Z,11.38
2019-03-16T16:42:45.830Z,9.83
2019-03-16T16:45:20.419Z,11.28
2019-03-16T16:47:48.822Z,8.53
2019-03-16T16:50:18.981Z,13.65
2019-03-16T16:52:47.430Z,6.20
2019-03-16T16:55:15.935Z,9.80
2019-03-16T16:57:44.318Z,9.88
2019-03-16T17:00:26.598Z,7.37
2019-03-16T17:02:55.026Z,6.65
2019-03-16T17:05:23.452Z,5.47
2019-03-16T17:07:51.832Z,6.00
2019-03-16T17:10:20.314Z,5.90
2019-03-16T17:12:48.734Z,10.58
2019-03-16T17:15:19.631Z,11.73
2019-03-16T17:17:48.013Z,11.63
2019-03-16T17:20:16.476Z,9.48
2019-03-16T17:22:45.013Z,6.20
2019-03-16T17:25:14.350Z,11.18
2019-03-16T17:27:42.889Z,7.95
2019-03-16T17:30:26.168Z,16.27
2019-03-16T17:32:54.567Z,9.45
2019-03-16T17:35:23.032Z,10.65
2019-03-16T17:37:51.497Z,10.82
2019-03-16T17:40:19.917Z,11.75
2019-03-16T17:42:49.215Z,9.35
2019-03-16T17:45:17.658Z,10.78
2019-03-16T17:47:46.046Z,11.40
2019-03-16T17:50:15.597Z,7.37
2019-03-16T17:52:44.026Z,8.45
2019-03-16T17:55:13.757Z,17.75
2019-03-16T17:57:45.343Z,12.20
2019-03-16T18:00:18.312Z,15.40
2019-03-16T18:02:51.880Z,7.10
2019-03-16T18:05:16.762Z,9.15
2019-03-16T18:07:45.259Z,6.65
2019-03-16T18:10:14.399Z,10.53
2019-03-16T18:12:42.791Z,7.25
2019-03-16T18:15:16.826Z,6.80
2019-03-16T18:17:45.222Z,12.35
2019-03-16T18:20:18.107Z,11.18
2019-03-16T18:22:47.493Z,13.03
2019-03-16T18:25:16.311Z,13.13
2019-03-16T18:27:44.872Z,10.25
2019-03-16T18:30:23.686Z,13.78
2019-03-16T18:32:52.170Z,7.17
2019-03-16T18:35:20.546Z,7.55
2019-03-16T18:37:49.020Z,10.28
2019-03-16T18:40:17.409Z,11.05
2019-03-16T18:42:45.825Z,10.35
2019-03-16T18:45:21.487Z,9.40
2019-03-16T18:48:09.302Z,7.03
2019-03-16T18:50:37.726Z,7.03
2019-03-16T18:53:06.545Z,13.70
2019-03-16T18:55:36.188Z,10.05
2019-03-16T18:58:04.621Z,10.90
2019-03-16T19:00:33.001Z,10.38
2019-03-16T19:03:01.450Z,6.58
2019-03-16T19:05:29.847Z,17.00
2019-03-16T19:07:58.353Z,12.80
2019-03-16T19:10:26.741Z,9.00
2019-03-16T19:12:55.208Z,7.58
2019-03-16T19:15:23.641Z,11.55
2019-03-16T19:17:58.583Z,8.40
2019-03-16T19:20:22.109Z,10.85
2019-03-16T19:22:50.585Z,10.30
2019-03-16T19:25:20.765Z,10.90
2019-03-16T19:27:49.151Z,14.10
2019-03-16T19:30:18.695Z,9.60
2019-03-16T19:32:47.091Z,10.63
2019-03-16T19:35:15.546Z,18.07
2019-03-16T19:37:43.961Z,9.53
2019-03-16T19:40:14.666Z,10.55
2019-03-16T19:42:43.098Z,15.10
2019-03-16T19:45:12.197Z,10.80
2019-03-16T19:47:52.698Z,11.95
2019-03-16T19:50:34.028Z,17.57
2019-03-16T19:53:02.420Z,10.38
2019-03-16T19:55:55.153Z,10.18
2019-03-16T19:58:23.940Z,14.33
2019-03-16T20:00:52.366Z,11.63
2019-03-16T20:03:20.758Z,14.10
2019-03-16T20:05:50.231Z,17.37
2019-03-16T20:08:18.636Z,11.03
2019-03-16T20:10:47.393Z,7.55
2019-03-16T20:13:15.785Z,12.85
2019-03-16T20:15:44.281Z,21.85
2019-03-16T20:18:12.684Z,16.82
2019-03-16T20:20:41.287Z,12.68
2019-03-16T20:23:10.043Z,14.25
2019-03-16T20:25:38.450Z,16.23
2019-03-16T20:28:09.805Z,20.77
2019-03-16T20:30:38.316Z,12.95
2019-03-16T20:33:06.774Z,15.00
2019-03-16T20:35:35.163Z,11.12
2019-03-16T20:38:05.997Z,11.35
2019-03-16T20:40:34.418Z,8.18
2019-03-16T20:43:02.810Z,21.10
2019-03-16T20:45:32.422Z,9.10
2019-03-16T20:48:01.095Z,13.70
2019-03-16T20:50:30.587Z,17.23
2019-03-16T20:52:58.987Z,6.58
2019-03-16T20:55:27.614Z,14.15
2019-03-16T20:57:58.189Z,9.90
2019-03-16T21:00:26.532Z,16.07
2019-03-16T21:02:56.750Z,10.48
2019-03-16T21:05:25.386Z,16.17
2019-03-16T21:07:53.801Z,15.43
2019-03-16T21:10:22.261Z,13.28
2019-03-16T21:12:53.940Z,16.32
2019-03-16T21:15:22.377Z,16.75
2019-03-16T21:17:56.786Z,13.48
2019-03-16T21:20:26.329Z,17.33
2019-03-16T21:22:54.717Z,16.67
2019-03-16T21:25:24.982Z,13.22
2019-03-16T21:27:53.470Z,19.10
2019-03-16T21:30:22.264Z,15.28
2019-03-16T21:32:50.796Z,12.37
2019-03-16T21:35:19.204Z,11.28
2019-03-16T21:37:49.324Z,10.35
2019-03-16T21:40:17.854Z,16.80
2019-03-16T21:42:46.400Z,7.53
2019-03-16T21:45:17.754Z,12.30
2019-03-16T21:47:46.314Z,11.63
2019-03-16T21:50:15.754Z,15.78
2019-03-16T21:52:45.060Z,10.80
2019-03-16T21:55:14.662Z,16.50
2019-03-16T21:57:43.098Z,11.70
2019-03-16T22:00:16.632Z,12.28
2019-03-16T22:02:45.059Z,19.52
2019-03-16T22:05:16.525Z,8.45
2019-03-16T22:07:45.391Z,12.68
2019-03-16T22:10:17.382Z,15.35
2019-03-16T22:12:45.770Z,10.72
2019-03-16T22:15:17.456Z,13.78
2019-03-16T22:17:52.123Z,21.10
2019-03-16T22:20:21.610Z,13.50
2019-03-16T22:22:50.066Z,9.45
2019-03-16T22:25:20.116Z,12.25
2019-03-16T22:27:51.753Z,8.55
2019-03-16T22:30:23.015Z,8.98
2019-03-16T22:32:51.431Z,14.58
2019-03-16T22:35:19.909Z,13.53
2019-03-16T22:37:49.987Z,12.75
2019-03-16T22:40:18.429Z,11.70
2019-03-16T22:42:47.039Z,10.15
2019-03-16T22:45:37.198Z,8.85
2019-03-16T22:48:07.060Z,19.98
2019-03-16T22:50:36.605Z,19.85
2019-03-16T22:53:09.673Z,13.50
2019-03-16T22:55:38.153Z,11.73
2019-03-16T22:58:06.720Z,10.32
2019-03-16T23:00:42.980Z,12.73
2019-03-16T23:03:11.475Z,13.80
2019-03-16T23:05:39.913Z,13.48
2019-03-16T23:08:08.462Z,11.97
2019-03-16T23:10:36.844Z,14.13
2019-03-16T23:13:05.238Z,15.95
2019-03-16T23:15:34.715Z,10.70
2019-03-16T23:18:03.122Z,13.18
2019-03-16T23:20:31.634Z,10.23
2019-03-16T23:23:00.074Z,17.70
2019-03-16T23:25:28.474Z,17.42
2019-03-16T23:27:56.870Z,14.53
2019-03-16T23:30:25.333Z,13.48
2019-03-16T23:32:53.820Z,14.23
2019-03-16T23:35:22.212Z,10.85
2019-03-16T23:37:50.612Z,11.48
2019-03-16T23:40:19.078Z,13.55
2019-03-16T23:42:47.452Z,14.55
2019-03-16T23:45:15.968Z,13.10
2019-03-16T23:47:44.373Z,12.82
2019-03-16T23:50:15.710Z,18.52
2019-03-16T23:52:44.143Z,18.98
2019-03-16T23:55:12.558Z,12.43
2019-03-16T23:57:40.976Z,14.75
